createdAt,value
2022-12-24T00:00:59.283Z,44.74
2022-12-24T00:02:25.054Z,46.93
2022-12-24T00:03:48.559Z,42.84
2022-12-24T00:05:10.491Z,42.44
2022-12-24T00:06:32.183Z,41.08
2022-12-24T00:07:55.505Z,45.69
2022-12-24T00:09:17.796Z,50.11
2022-12-24T00:10:39.165Z,40.26
2022-12-24T00:12:00.862Z,41.78
2022-12-24T00:13:22.236Z,45.03
2022-12-24T00:14:43.734Z,43.96
2022-12-24T00:16:06.044Z,47.73
2022-12-24T00:17:27.271Z,44.46
2022-12-24T00:18:48.778Z,47.53
2022-12-24T00:20:10.956Z,47.88
2022-12-24T00:21:31.948Z,46.71
2022-12-24T00:22:54.900Z,46.76
2022-12-24T00:24:17.312Z,44.65
2022-12-24T00:25:38.969Z,42.66
2022-12-24T00:27:00.649Z,45.72
2022-12-24T00:28:21.981Z,42.91
2022-12-24T00:29:43.390Z,43.26
2022-12-24T00:31:18.725Z,44.19
2022-12-24T00:32:40.376Z,47.46
2022-12-24T00:34:08.673Z,49.87
2022-12-24T00:35:32.904Z,49.59
2022-12-24T00:36:54.396Z,45.45
2022-12-24T00:38:15.996Z,47.49
2022-12-24T00:39:37.478Z,47.07
2022-12-24T00:40:59.865Z,45.53
2022-12-24T00:42:22.367Z,47.52
2022-12-24T00:43:44.006Z,48.48
2022-12-24T00:45:07.130Z,47.60
2022-12-24T00:46:30.441Z,46.80
2022-12-24T00:47:51.785Z,44.57
2022-12-24T00:49:13.229Z,47.34
2022-12-24T00:50:34.807Z,48.07
2022-12-24T00:51:56.951Z,46.10
2022-12-24T00:53:18.876Z,50.57
2022-12-24T00:54:39.857Z,49.38
2022-12-24T00:56:01.221Z,46.21
2022-12-24T00:57:22.549Z,60.66
2022-12-24T00:58:47.706Z,84.28
2022-12-24T01:00:10.503Z,92.70
2022-12-24T01:01:31.868Z,80.38
2022-12-24T01:02:53.160Z,64.58
2022-12-24T01:04:15.638Z,71.73
2022-12-24T01:05:37.039Z,139.70
2022-12-24T01:07:01.709Z,70.76
2022-12-24T01:08:23.255Z,102.32
2022-12-24T01:09:44.190Z,72.17
2022-12-24T01:11:08.281Z,66.66
2022-12-24T01:12:29.528Z,55.11
2022-12-24T01:13:50.608Z,70.88
2022-12-24T01:15:12.863Z,54.58
2022-12-24T01:16:34.202Z,50.54
2022-12-24T01:17:55.940Z,51.97
2022-12-24T01:19:17.447Z,49.14
2022-12-24T01:20:38.969Z,52.32
2022-12-24T01:22:01.199Z,46.59
2022-12-24T01:23:22.268Z,61.45
2022-12-24T01:24:43.700Z,48.90
2022-12-24T01:26:05.353Z,48.29
2022-12-24T01:27:26.599Z,50.16
2022-12-24T01:28:47.759Z,58.68
2022-12-24T01:30:12.430Z,62.65
2022-12-24T01:31:35.404Z,57.80
2022-12-24T01:32:56.880Z,55.26
2022-12-24T01:34:18.032Z,59.74
2022-12-24T01:35:41.904Z,45.37
2022-12-24T01:37:03.426Z,48.62
2022-12-24T01:38:24.837Z,52.67
2022-12-24T01:39:46.191Z,53.82
2022-12-24T01:41:19.511Z,47.02
2022-12-24T01:42:42.407Z,48.02
2022-12-24T01:44:33.132Z,44.32
2022-12-24T01:45:51.178Z,45.92
2022-12-24T01:47:21.351Z,33.57
2022-12-24T01:50:15.578Z,43.47
2022-12-24T01:52:49.053Z,50.14
2022-12-24T01:55:38.770Z,49.67
2022-12-24T01:58:24.614Z,49.22
2022-12-24T01:59:48.332Z,45.60
2022-12-24T02:01:09.573Z,47.27
2022-12-24T02:02:31.371Z,49.49
2022-12-24T02:03:53.016Z,47.79
2022-12-24T02:05:29.194Z,46.42
2022-12-24T02:06:50.493Z,53.64
2022-12-24T02:08:11.810Z,46.74
2022-12-24T02:09:33.634Z,47.93
2022-12-24T02:10:56.896Z,74.77
2022-12-24T02:12:18.201Z,61.17
2022-12-24T02:13:40.073Z,54.55
2022-12-24T02:15:01.846Z,51.30
2022-12-24T02:16:40.119Z,74.43
2022-12-24T02:18:19.960Z,45.82
2022-12-24T02:19:53.615Z,47.60
2022-12-24T02:21:35.371Z,61.30
2022-12-24T02:23:26.075Z,51.04
2022-12-24T02:25:02.237Z,74.53
2022-12-24T02:26:45.309Z,57.01
2022-12-24T02:30:22.973Z,53.35
2022-12-24T02:31:53.649Z,58.03
2022-12-24T02:33:18.776Z,48.02
2022-12-24T02:37:14.343Z,48.33
2022-12-24T02:38:53.742Z,63.81
2022-12-24T02:41:35.594Z,78.99
2022-12-24T02:43:00.125Z,88.79
2022-12-24T02:44:23.337Z,84.88
2022-12-24T02:45:46.762Z,80.43
2022-12-24T02:47:08.388Z,74.22
2022-12-24T02:48:29.493Z,75.86
2022-12-24T02:49:50.944Z,76.00
2022-12-24T02:51:12.499Z,65.71
2022-12-24T02:52:38.790Z,65.01
2022-12-24T02:53:59.877Z,70.05
2022-12-24T02:56:46.927Z,62.73
2022-12-24T02:58:17.947Z,52.56
2022-12-24T02:59:42.761Z,61.13
2022-12-24T03:01:35.067Z,60.19
2022-12-24T03:04:58.367Z,70.96
2022-12-24T03:06:40.143Z,69.07
2022-12-24T03:08:05.058Z,75.21
2022-12-24T03:09:27.713Z,58.44
2022-12-24T03:12:10.835Z,42.93
2022-12-24T03:13:32.179Z,59.13
2022-12-24T03:14:53.799Z,53.22
2022-12-24T03:16:18.425Z,48.09
2022-12-24T03:17:40.095Z,51.75
2022-12-24T03:19:02.693Z,48.30
2022-12-24T03:21:38.974Z,34.46
2022-12-24T03:23:00.210Z,41.23
2022-12-24T03:24:21.530Z,43.33
2022-12-24T03:25:43.576Z,42.47
2022-12-24T03:27:06.821Z,35.89
2022-12-24T03:28:28.154Z,39.96
2022-12-24T03:29:49.232Z,38.00
2022-12-24T03:31:10.764Z,40.86
2022-12-24T03:32:32.782Z,38.62
2022-12-24T03:33:53.890Z,38.72
2022-12-24T03:35:15.377Z,39.48
2022-12-24T03:36:37.027Z,38.16
2022-12-24T03:37:58.322Z,35.68
2022-12-24T03:39:19.813Z,41.01
2022-12-24T03:40:40.896Z,39.99
2022-12-24T03:42:02.457Z,39.81
2022-12-24T03:43:23.735Z,40.30
2022-12-24T03:44:44.990Z,42.28
2022-12-24T03:46:06.804Z,49.16
2022-12-24T03:47:27.798Z,51.81
2022-12-24T03:48:49.167Z,47.45
2022-12-24T03:50:10.642Z,62.48
2022-12-24T03:51:31.911Z,57.09
2022-12-24T03:52:54.298Z,56.10
2022-12-24T03:54:15.365Z,55.28
2022-12-24T03:55:37.718Z,50.04
2022-12-24T03:56:59.136Z,51.24
2022-12-24T03:58:20.551Z,42.81
2022-12-24T03:59:41.947Z,42.76
2022-12-24T04:01:03.330Z,47.72
2022-12-24T04:02:24.886Z,48.67
2022-12-24T04:03:45.957Z,43.11
2022-12-24T04:05:08.175Z,45.00
2022-12-24T04:06:30.589Z,34.92
2022-12-24T04:07:51.507Z,32.09
2022-12-24T04:09:13.435Z,43.41
2022-12-24T04:10:35.025Z,46.69
2022-12-24T04:11:56.075Z,45.98
2022-12-24T04:13:17.043Z,48.80
2022-12-24T04:14:38.491Z,46.72
2022-12-24T04:16:01.267Z,47.47
2022-12-24T04:17:22.512Z,45.95
2022-12-24T04:18:43.920Z,54.16
2022-12-24T04:20:06.368Z,65.49
2022-12-24T04:21:27.554Z,48.26
2022-12-24T04:22:48.877Z,53.57
2022-12-24T04:24:10.262Z,51.43
2022-12-24T04:25:31.183Z,45.44
2022-12-24T04:26:52.831Z,46.73
2022-12-24T04:28:14.369Z,46.02
2022-12-24T04:29:35.427Z,44.11
2022-12-24T04:30:58.448Z,43.35
2022-12-24T04:32:19.739Z,42.09
2022-12-24T04:33:41.094Z,43.00
2022-12-24T04:35:02.373Z,45.86
2022-12-24T04:36:23.988Z,44.63
2022-12-24T04:37:45.032Z,46.65
2022-12-24T04:39:07.390Z,40.02
2022-12-24T04:40:29.070Z,41.45
2022-12-24T04:41:50.192Z,43.03
2022-12-24T04:43:11.170Z,41.32
2022-12-24T04:44:33.005Z,44.73
2022-12-24T04:45:54.136Z,45.52
2022-12-24T04:47:15.595Z,45.88
2022-12-24T04:48:37.414Z,41.24
2022-12-24T04:49:58.783Z,42.44
2022-12-24T04:51:19.899Z,47.93
2022-12-24T04:52:41.286Z,42.96
2022-12-24T04:54:02.794Z,43.14
2022-12-24T04:55:24.507Z,53.03
2022-12-24T04:56:45.932Z,52.29
2022-12-24T04:58:06.979Z,49.29
2022-12-24T04:59:28.040Z,53.29
2022-12-24T05:00:51.027Z,54.50
2022-12-24T05:02:13.741Z,49.87
2022-12-24T05:05:01.473Z,52.31
2022-12-24T05:07:40.018Z,47.49
2022-12-24T05:09:01.612Z,50.53
2022-12-24T05:10:23.891Z,47.38
2022-12-24T05:11:46.565Z,48.84
2022-12-24T05:13:13.315Z,47.67
2022-12-24T05:14:34.959Z,45.39
2022-12-24T05:15:56.360Z,48.34
2022-12-24T05:17:17.710Z,45.57
2022-12-24T05:18:39.132Z,48.27
2022-12-24T05:20:02.991Z,49.04
2022-12-24T05:21:24.464Z,45.66
2022-12-24T05:22:46.777Z,47.46
2022-12-24T05:24:10.648Z,101.08
2022-12-24T05:26:56.065Z,55.11
2022-12-24T05:28:17.483Z,48.05
2022-12-24T05:29:38.915Z,50.50
2022-12-24T05:31:00.831Z,52.03
2022-12-24T05:32:22.224Z,51.07
2022-12-24T05:33:43.913Z,55.61
2022-12-24T05:35:05.534Z,46.80
2022-12-24T05:36:27.086Z,42.01
2022-12-24T05:37:48.175Z,43.44
2022-12-24T05:40:22.689Z,41.56
2022-12-24T05:41:44.626Z,48.09
2022-12-24T05:43:05.749Z,59.73
2022-12-24T05:44:36.556Z,51.51
2022-12-24T05:46:01.672Z,46.94
2022-12-24T05:47:25.426Z,45.42
2022-12-24T05:48:47.123Z,46.87
2022-12-24T05:50:10.472Z,44.64
2022-12-24T05:51:33.220Z,47.61
2022-12-24T05:52:55.722Z,59.94
2022-12-24T05:54:16.860Z,51.93
2022-12-24T05:55:38.172Z,53.48
2022-12-24T05:56:59.938Z,55.28
2022-12-24T05:58:21.330Z,60.53
2022-12-24T05:59:45.849Z,65.10
2022-12-24T06:01:08.105Z,69.24
2022-12-24T06:02:30.289Z,49.89
2022-12-24T06:03:51.655Z,52.06
2022-12-24T06:05:15.612Z,44.95
2022-12-24T06:06:38.674Z,47.19
2022-12-24T06:08:00.081Z,46.65
2022-12-24T06:09:22.019Z,48.37
2022-12-24T06:10:43.721Z,47.43
2022-12-24T06:12:05.581Z,46.98
2022-12-24T06:13:27.000Z,48.30
2022-12-24T06:14:51.498Z,46.28
2022-12-24T06:16:16.172Z,49.96
2022-12-24T06:17:37.559Z,47.38
2022-12-24T06:19:00.484Z,48.74
2022-12-24T06:21:43.071Z,46.34
2022-12-24T06:23:05.796Z,47.71
2022-12-24T06:25:48.362Z,43.90
2022-12-24T06:27:09.488Z,46.17
2022-12-24T06:28:33.162Z,47.02
2022-12-24T06:29:55.381Z,43.54
2022-12-24T06:31:18.004Z,48.14
2022-12-24T06:32:39.163Z,45.59
2022-12-24T06:34:02.244Z,48.37
2022-12-24T06:35:26.649Z,44.19
2022-12-24T06:36:48.199Z,44.61
2022-12-24T06:38:09.254Z,43.89
2022-12-24T06:39:30.900Z,43.31
2022-12-24T06:40:53.215Z,40.27
2022-12-24T06:42:14.973Z,44.15
2022-12-24T06:43:36.372Z,45.14
2022-12-24T06:45:02.279Z,42.74
2022-12-24T06:46:22.146Z,48.69
2022-12-24T06:47:44.739Z,46.21
2022-12-24T06:49:06.574Z,49.52
2022-12-24T06:50:28.141Z,47.12
2022-12-24T06:51:50.851Z,48.07
2022-12-24T06:53:12.682Z,49.91
2022-12-24T06:54:35.951Z,50.56
2022-12-24T06:57:35.206Z,43.19
2022-12-24T06:59:00.176Z,53.21
2022-12-24T07:00:21.137Z,49.21
2022-12-24T07:01:43.667Z,35.41
2022-12-24T07:03:05.336Z,50.36
2022-12-24T07:04:26.629Z,43.96
2022-12-24T07:05:51.138Z,46.89
2022-12-24T07:07:13.332Z,45.27
2022-12-24T07:08:34.661Z,48.57
2022-12-24T07:09:55.853Z,46.63
2022-12-24T07:11:18.595Z,46.62
2022-12-24T07:12:41.664Z,52.23
2022-12-24T07:14:03.063Z,49.34
2022-12-24T07:15:24.618Z,54.68
2022-12-24T07:16:46.436Z,58.48
2022-12-24T07:18:08.019Z,56.11
2022-12-24T07:19:30.032Z,50.88
2022-12-24T07:20:51.645Z,48.38
2022-12-24T07:22:15.750Z,49.29
2022-12-24T07:24:58.495Z,50.06
2022-12-24T07:26:21.772Z,54.19
2022-12-24T07:27:43.339Z,51.74
2022-12-24T07:29:04.801Z,52.15
2022-12-24T07:30:30.215Z,54.02
2022-12-24T07:31:52.253Z,48.29
2022-12-24T07:33:14.209Z,50.44
2022-12-24T07:34:35.443Z,45.57
2022-12-24T07:37:12.804Z,53.09
2022-12-24T07:38:34.330Z,50.47
2022-12-24T07:39:56.047Z,51.46
2022-12-24T07:41:17.051Z,60.58
2022-12-24T07:42:39.856Z,67.18
2022-12-24T07:44:02.594Z,79.52
2022-12-24T07:45:23.984Z,61.96
2022-12-24T07:46:46.254Z,59.07
2022-12-24T07:48:08.928Z,71.92
2022-12-24T07:49:30.739Z,50.77
2022-12-24T07:50:52.242Z,47.95
2022-12-24T07:52:13.862Z,49.19
2022-12-24T07:53:38.167Z,46.15
2022-12-24T07:55:00.758Z,43.53
2022-12-24T07:56:23.031Z,42.67
2022-12-24T07:57:45.919Z,47.58
2022-12-24T07:59:09.262Z,48.92
2022-12-24T08:00:31.609Z,49.93
2022-12-24T08:01:53.278Z,53.83
2022-12-24T08:03:21.058Z,50.32
2022-12-24T08:04:42.813Z,48.41
2022-12-24T08:06:06.280Z,49.34
2022-12-24T08:07:29.557Z,46.84
2022-12-24T08:08:50.915Z,49.37
2022-12-24T08:10:12.790Z,47.25
2022-12-24T08:11:37.227Z,51.46
2022-12-24T08:12:59.365Z,51.42
2022-12-24T08:14:21.049Z,52.17
2022-12-24T08:15:42.490Z,51.97
2022-12-24T08:17:04.707Z,52.67
2022-12-24T08:18:26.229Z,51.20
2022-12-24T08:19:49.170Z,56.88
2022-12-24T08:21:13.468Z,55.72
2022-12-24T08:22:39.102Z,59.94
2022-12-24T08:24:01.621Z,59.69
2022-12-24T08:25:23.079Z,69.38
2022-12-24T08:26:44.656Z,64.15
2022-12-24T08:28:07.261Z,58.31
2022-12-24T08:29:34.081Z,55.78
2022-12-24T08:30:55.718Z,55.81
2022-12-24T08:32:17.812Z,53.63
2022-12-24T08:33:46.818Z,65.42
2022-12-24T08:35:08.394Z,57.96
2022-12-24T08:36:30.639Z,42.90
2022-12-24T08:37:51.891Z,49.00
2022-12-24T08:39:13.340Z,49.82
2022-12-24T08:40:36.367Z,45.36
2022-12-24T08:41:59.515Z,47.07
2022-12-24T08:43:23.949Z,50.35
2022-12-24T08:44:45.355Z,49.43
2022-12-24T08:46:11.781Z,46.73
2022-12-24T08:47:33.234Z,52.33
2022-12-24T08:48:55.015Z,46.22
2022-12-24T08:50:16.607Z,50.71
2022-12-24T08:51:37.680Z,45.21
2022-12-24T08:52:59.218Z,44.64
2022-12-24T08:54:21.512Z,47.68
2022-12-24T08:55:45.842Z,44.40
2022-12-24T08:57:09.581Z,44.33
2022-12-24T08:58:34.641Z,46.51
2022-12-24T09:00:00.642Z,48.36
2022-12-24T09:01:22.980Z,49.81
2022-12-24T09:02:44.506Z,46.18
2022-12-24T09:04:05.651Z,46.51
2022-12-24T09:05:30.566Z,51.22
2022-12-24T09:06:52.279Z,50.43
2022-12-24T09:08:13.440Z,46.55
2022-12-24T09:09:38.093Z,45.62
2022-12-24T09:12:19.793Z,50.68
2022-12-24T09:13:42.253Z,56.72
2022-12-24T09:15:06.108Z,49.69
2022-12-24T09:16:28.140Z,48.57
2022-12-24T09:17:52.622Z,47.93
2022-12-24T09:19:13.904Z,51.26
2022-12-24T09:20:35.281Z,51.28
2022-12-24T09:21:57.297Z,55.66
2022-12-24T09:23:23.333Z,66.42
2022-12-24T09:24:45.980Z,71.61
2022-12-24T09:27:30.181Z,53.15
2022-12-24T09:28:52.086Z,54.53
2022-12-24T09:30:15.648Z,51.78
2022-12-24T09:31:37.125Z,55.04
2022-12-24T09:32:58.838Z,52.22
2022-12-24T09:34:25.167Z,51.63
2022-12-24T09:35:43.472Z,55.16
2022-12-24T09:37:05.024Z,66.82
2022-12-24T09:38:26.601Z,68.88
2022-12-24T09:39:48.057Z,63.83
2022-12-24T09:42:43.899Z,48.49
2022-12-24T09:44:28.357Z,47.46
2022-12-24T09:45:56.494Z,47.84
2022-12-24T09:47:30.828Z,43.77
2022-12-24T09:48:57.212Z,42.42
2022-12-24T09:50:50.307Z,44.33
2022-12-24T09:52:13.315Z,50.59
2022-12-24T09:55:17.707Z,43.91
2022-12-24T09:56:42.055Z,50.11
2022-12-24T09:58:04.071Z,44.45
2022-12-24T09:59:40.668Z,43.74
2022-12-24T10:01:01.992Z,45.42
2022-12-24T10:02:23.280Z,42.72
2022-12-24T10:03:44.672Z,41.16
2022-12-24T10:05:08.255Z,39.41
2022-12-24T10:06:54.035Z,42.02
2022-12-24T10:09:59.988Z,46.34
2022-12-24T10:11:47.780Z,41.37
2022-12-24T10:13:33.594Z,41.50
2022-12-24T10:16:56.641Z,42.11
2022-12-24T10:18:45.572Z,39.76
2022-12-24T10:20:36.520Z,40.49
2022-12-24T10:22:16.755Z,43.37
2022-12-24T10:23:44.860Z,44.44
2022-12-24T10:25:21.384Z,44.69
2022-12-24T10:26:49.759Z,44.31
2022-12-24T10:29:49.858Z,43.74
2022-12-24T10:31:11.322Z,43.84
2022-12-24T10:32:33.653Z,43.84
2022-12-24T10:35:22.282Z,32.72
2022-12-24T10:36:44.163Z,45.64
2022-12-24T10:38:07.155Z,43.76
2022-12-24T10:39:41.355Z,57.81
2022-12-24T10:41:03.867Z,49.36
2022-12-24T10:42:28.830Z,43.47
2022-12-24T10:43:51.038Z,42.44
2022-12-24T10:45:18.557Z,47.49
2022-12-24T10:46:41.026Z,60.23
2022-12-24T10:48:04.279Z,63.32
2022-12-24T10:49:34.803Z,58.72
2022-12-24T10:51:05.009Z,54.59
2022-12-24T10:52:30.483Z,55.90
2022-12-24T10:54:20.880Z,57.71
2022-12-24T10:55:39.567Z,55.69
2022-12-24T10:57:05.244Z,51.57
2022-12-24T10:58:27.404Z,52.18
2022-12-24T10:59:51.920Z,47.84
2022-12-24T11:01:16.309Z,46.63
2022-12-24T11:02:38.330Z,43.74
2022-12-24T11:04:00.435Z,43.83
2022-12-24T11:05:32.713Z,48.85
2022-12-24T11:07:01.481Z,45.91
2022-12-24T11:08:23.993Z,44.71
2022-12-24T11:09:57.247Z,50.47
2022-12-24T11:11:20.593Z,46.72
2022-12-24T11:13:00.619Z,46.47
2022-12-24T11:14:13.775Z,45.56
2022-12-24T11:15:35.578Z,46.02
2022-12-24T11:16:57.198Z,45.83
2022-12-24T11:18:18.431Z,47.24
2022-12-24T11:19:39.640Z,54.58
2022-12-24T11:21:05.076Z,50.23
2022-12-24T11:23:39.646Z,52.47
2022-12-24T11:25:07.435Z,52.46
2022-12-24T11:26:29.990Z,50.22
2022-12-24T11:27:52.081Z,53.95
2022-12-24T11:29:22.122Z,56.42
2022-12-24T11:30:43.599Z,56.15
2022-12-24T11:32:17.178Z,54.98
2022-12-24T11:33:49.457Z,57.07
2022-12-24T11:35:19.135Z,53.35
2022-12-24T11:36:42.503Z,54.51
2022-12-24T11:38:12.092Z,54.87
2022-12-24T11:39:35.279Z,51.58
2022-12-24T11:42:36.574Z,55.11
2022-12-24T11:43:59.814Z,54.52
2022-12-24T11:45:27.988Z,51.71
2022-12-24T11:46:50.718Z,50.77
2022-12-24T11:48:32.292Z,44.49
2022-12-24T11:49:55.084Z,54.70
2022-12-24T11:52:39.119Z,61.95
2022-12-24T11:55:45.196Z,55.90
2022-12-24T11:57:07.253Z,51.75
2022-12-24T11:58:40.221Z,61.64
2022-12-24T12:00:01.676Z,51.98
2022-12-24T12:01:50.979Z,50.09
2022-12-24T12:03:32.203Z,57.28
2022-12-24T12:04:56.838Z,43.43
2022-12-24T12:06:34.585Z,46.24
2022-12-24T12:09:32.801Z,38.28
2022-12-24T12:10:57.241Z,42.37
2022-12-24T12:12:24.203Z,39.21
2022-12-24T12:13:45.480Z,45.50
2022-12-24T12:15:21.514Z,50.38
2022-12-24T12:17:03.875Z,46.77
2022-12-24T12:18:31.101Z,45.44
2022-12-24T12:20:02.061Z,47.24
2022-12-24T12:21:25.918Z,44.86
2022-12-24T12:23:03.217Z,44.29
2022-12-24T12:24:32.348Z,42.34
2022-12-24T12:27:40.802Z,32.69
2022-12-24T12:29:26.977Z,42.05
2022-12-24T12:31:13.804Z,44.38
2022-12-24T12:32:42.921Z,46.04
2022-12-24T12:34:16.107Z,45.67
2022-12-24T12:37:12.764Z,44.83
2022-12-24T12:38:31.933Z,45.88
2022-12-24T12:39:53.656Z,46.39
2022-12-24T12:41:24.931Z,47.89
2022-12-24T12:42:58.625Z,46.79
2022-12-24T12:44:45.035Z,43.74
2022-12-24T12:47:46.175Z,45.99
2022-12-24T12:49:32.932Z,44.97
2022-12-24T12:51:09.173Z,47.91
2022-12-24T12:52:48.248Z,47.17
2022-12-24T12:54:16.353Z,47.88
2022-12-24T12:55:59.143Z,48.03
2022-12-24T12:57:22.397Z,38.61
2022-12-24T13:00:12.826Z,47.77
2022-12-24T13:01:41.899Z,45.84
2022-12-24T13:03:29.295Z,47.73
2022-12-24T13:05:24.224Z,47.37
2022-12-24T13:07:08.114Z,44.72
2022-12-24T13:08:52.603Z,46.66
2022-12-24T13:10:30.246Z,47.29
2022-12-24T13:11:58.389Z,48.39
2022-12-24T13:13:38.390Z,60.93
2022-12-24T13:15:16.142Z,53.22
2022-12-24T13:16:57.849Z,42.34
2022-12-24T13:18:43.302Z,41.58
2022-12-24T13:20:18.876Z,41.04
2022-12-24T13:21:44.286Z,48.87
2022-12-24T13:23:19.351Z,46.38
2022-12-24T13:24:49.690Z,45.60
2022-12-24T13:26:09.656Z,44.32
2022-12-24T13:27:32.146Z,44.98
2022-12-24T13:28:53.635Z,44.51
2022-12-24T13:30:36.477Z,44.31
2022-12-24T13:32:20.791Z,44.24
2022-12-24T13:33:45.995Z,45.69
2022-12-24T13:35:22.835Z,46.51
2022-12-24T13:38:24.255Z,49.07
2022-12-24T13:40:04.520Z,48.19
2022-12-24T13:41:40.028Z,49.99
2022-12-24T13:43:05.655Z,51.09
2022-12-24T13:44:27.305Z,52.89
2022-12-24T13:45:49.738Z,45.72
2022-12-24T13:47:18.963Z,54.67
2022-12-24T13:48:41.620Z,50.01
2022-12-24T13:50:16.966Z,49.81
2022-12-24T13:51:38.006Z,54.79
2022-12-24T13:52:59.989Z,45.58
2022-12-24T13:54:24.952Z,51.31
2022-12-24T13:56:00.828Z,51.29
2022-12-24T13:57:34.969Z,54.81
2022-12-24T14:00:23.661Z,53.20
2022-12-24T14:01:46.612Z,53.25
2022-12-24T14:03:21.231Z,52.01
2022-12-24T14:04:42.956Z,52.80
2022-12-24T14:07:21.248Z,52.97
2022-12-24T14:08:45.152Z,55.60
2022-12-24T14:10:09.270Z,57.21
2022-12-24T14:11:51.775Z,56.11
2022-12-24T14:13:40.042Z,57.95
2022-12-24T14:15:21.725Z,84.73
2022-12-24T14:16:45.393Z,94.71
2022-12-24T14:18:07.194Z,88.62
2022-12-24T14:19:37.386Z,102.11
2022-12-24T14:20:57.068Z,89.04
2022-12-24T14:22:32.891Z,81.68
2022-12-24T14:23:56.597Z,80.28
2022-12-24T14:25:22.399Z,84.74
2022-12-24T14:26:49.443Z,89.28
2022-12-24T14:28:16.000Z,94.85
2022-12-24T14:29:50.153Z,109.05
2022-12-24T14:31:16.651Z,112.07
2022-12-24T14:32:40.075Z,136.09
2022-12-24T14:34:11.942Z,118.42
2022-12-24T14:35:37.309Z,106.38
2022-12-24T14:36:58.984Z,101.29
2022-12-24T14:38:20.591Z,92.68
2022-12-24T14:39:44.141Z,111.08
2022-12-24T14:42:58.096Z,61.14
2022-12-24T14:44:36.031Z,49.88
2022-12-24T14:46:10.431Z,52.97
2022-12-24T14:49:28.519Z,46.89
2022-12-24T14:51:10.566Z,78.33
2022-12-24T14:53:04.199Z,89.02
2022-12-24T14:54:04.772Z,73.73
2022-12-24T14:56:47.301Z,71.03
2022-12-24T14:58:29.009Z,70.50
2022-12-24T14:59:58.732Z,70.47
2022-12-24T15:01:25.719Z,69.01
2022-12-24T15:02:49.188Z,73.87
2022-12-24T15:04:14.118Z,77.97
2022-12-24T15:05:35.298Z,81.83
2022-12-24T15:06:56.907Z,78.04
2022-12-24T15:08:20.687Z,82.74
2022-12-24T15:09:41.683Z,79.98
2022-12-24T15:12:15.435Z,95.60
2022-12-24T15:13:40.415Z,93.21
2022-12-24T15:15:02.625Z,82.86
2022-12-24T15:16:31.686Z,86.45
2022-12-24T15:17:53.039Z,83.76
2022-12-24T15:19:23.099Z,87.22
2022-12-24T15:20:47.701Z,76.23
2022-12-24T15:22:24.449Z,79.99
2022-12-24T15:23:48.286Z,82.10
2022-12-24T15:26:36.880Z,57.02
2022-12-24T15:27:59.671Z,70.79
2022-12-24T15:30:41.025Z,76.43
2022-12-24T15:32:02.537Z,74.83
2022-12-24T15:33:23.882Z,76.51
2022-12-24T15:36:08.592Z,70.82
2022-12-24T15:37:31.370Z,67.46
2022-12-24T15:40:21.510Z,66.23
2022-12-24T15:41:46.821Z,67.38
2022-12-24T15:43:08.195Z,63.32
2022-12-24T15:45:45.160Z,66.44
2022-12-24T15:47:07.770Z,61.52
2022-12-24T15:48:29.517Z,48.98
2022-12-24T15:49:51.030Z,59.87
2022-12-24T15:51:12.187Z,58.74
2022-12-24T15:52:37.386Z,52.55
2022-12-24T15:54:02.224Z,49.26
2022-12-24T15:55:27.583Z,50.05
2022-12-24T15:56:49.085Z,48.66
2022-12-24T15:59:34.561Z,47.87
2022-12-24T16:01:00.807Z,48.83
2022-12-24T16:02:41.869Z,47.02
2022-12-24T16:04:14.082Z,46.96
2022-12-24T16:05:38.905Z,49.17
2022-12-24T16:07:01.779Z,48.54
2022-12-24T16:08:25.375Z,48.08
2022-12-24T16:09:46.594Z,49.13
2022-12-24T16:11:17.064Z,67.80
2022-12-24T16:12:38.545Z,55.59
2022-12-24T16:15:32.583Z,40.62
2022-12-24T16:16:54.682Z,55.00
2022-12-24T16:18:18.011Z,60.52
2022-12-24T16:19:40.564Z,66.84
2022-12-24T16:21:03.394Z,74.91
2022-12-24T16:22:25.930Z,71.69
2022-12-24T16:23:52.945Z,71.59
2022-12-24T16:25:21.645Z,65.33
2022-12-24T16:26:43.240Z,65.31
2022-12-24T16:28:15.124Z,64.04
2022-12-24T16:29:37.145Z,76.20
2022-12-24T16:30:59.933Z,78.99
2022-12-24T16:32:32.506Z,71.53
2022-12-24T16:33:54.995Z,65.66
2022-12-24T16:35:33.885Z,64.89
2022-12-24T16:36:58.212Z,62.73
2022-12-24T16:38:20.949Z,62.03
2022-12-24T16:39:44.262Z,57.53
2022-12-24T16:41:07.917Z,58.71
2022-12-24T16:42:29.254Z,64.40
2022-12-24T16:43:52.598Z,62.70
2022-12-24T16:45:14.203Z,60.66
2022-12-24T16:46:35.666Z,65.89
2022-12-24T16:48:02.105Z,61.25
2022-12-24T16:49:25.157Z,60.33
2022-12-24T16:50:47.417Z,60.56
2022-12-24T16:52:12.527Z,56.99
2022-12-24T16:53:34.060Z,53.53
2022-12-24T16:54:56.030Z,57.97
2022-12-24T16:57:41.621Z,60.39
2022-12-24T17:00:27.793Z,63.94
2022-12-24T17:01:52.978Z,67.71
2022-12-24T17:03:14.550Z,62.42
2022-12-24T17:04:36.213Z,68.45
2022-12-24T17:05:57.323Z,64.13
2022-12-24T17:07:19.449Z,72.07
2022-12-24T17:08:40.839Z,71.76
2022-12-24T17:10:04.414Z,67.88
2022-12-24T17:11:26.594Z,65.04
2022-12-24T17:12:48.283Z,62.19
2022-12-24T17:14:15.028Z,60.26
2022-12-24T17:15:36.542Z,61.68
2022-12-24T17:16:58.954Z,62.34
2022-12-24T17:18:21.292Z,67.60
2022-12-24T17:19:42.974Z,63.41
2022-12-24T17:21:04.542Z,61.68
2022-12-24T17:22:26.070Z,61.17
2022-12-24T17:23:50.606Z,67.72
2022-12-24T17:25:12.570Z,63.89
2022-12-24T17:26:34.996Z,69.59
2022-12-24T17:27:57.742Z,80.34
2022-12-24T17:29:25.860Z,74.83
2022-12-24T17:30:52.278Z,68.05
2022-12-24T17:32:13.335Z,65.16
2022-12-24T17:33:38.415Z,67.01
2022-12-24T17:35:01.420Z,62.04
2022-12-24T17:36:27.511Z,64.30
2022-12-24T17:37:50.049Z,63.32
2022-12-24T17:39:13.282Z,62.12
2022-12-24T17:40:38.996Z,66.38
2022-12-24T17:42:02.637Z,64.33
2022-12-24T17:43:25.147Z,70.19
2022-12-24T17:44:51.088Z,67.28
2022-12-24T17:46:19.049Z,67.79
2022-12-24T17:47:42.093Z,70.43
2022-12-24T17:50:31.509Z,75.96
2022-12-24T17:51:56.141Z,77.78
2022-12-24T17:53:21.809Z,70.20
2022-12-24T17:54:44.091Z,76.46
2022-12-24T17:56:07.567Z,78.75
2022-12-24T17:57:32.048Z,64.72
2022-12-24T17:58:58.930Z,83.64
2022-12-24T18:00:24.002Z,82.07
2022-12-24T18:01:45.660Z,83.01
2022-12-24T18:03:11.842Z,79.49
2022-12-24T18:04:33.127Z,81.98
2022-12-24T18:05:56.621Z,78.21
2022-12-24T18:07:18.470Z,79.78
2022-12-24T18:08:40.945Z,79.72
2022-12-24T18:10:02.007Z,82.29
2022-12-24T18:11:30.907Z,83.60
2022-12-24T18:12:55.152Z,83.74
2022-12-24T18:14:17.273Z,85.34
2022-12-24T18:15:41.493Z,83.15
2022-12-24T18:17:03.066Z,78.79
2022-12-24T18:18:24.556Z,73.51
2022-12-24T18:19:46.027Z,78.19
2022-12-24T18:21:07.525Z,77.95
2022-12-24T18:22:28.964Z,76.74
2022-12-24T18:23:50.995Z,82.77
2022-12-24T18:25:12.609Z,71.12
2022-12-24T18:26:34.515Z,72.89
2022-12-24T18:27:56.793Z,76.71
2022-12-24T18:29:17.971Z,84.36
2022-12-24T18:30:41.054Z,72.98
2022-12-24T18:32:05.784Z,69.25
2022-12-24T18:33:27.882Z,77.98
2022-12-24T18:34:53.652Z,74.03
2022-12-24T18:36:17.629Z,76.46
2022-12-24T18:37:44.766Z,76.54
2022-12-24T18:39:06.217Z,75.83
2022-12-24T18:40:29.983Z,76.42
2022-12-24T18:41:53.288Z,73.41
2022-12-24T18:43:24.514Z,81.82
2022-12-24T18:44:47.177Z,77.78
2022-12-24T18:46:15.722Z,69.90
2022-12-24T18:47:37.287Z,69.53
2022-12-24T18:48:59.395Z,63.91
2022-12-24T18:50:21.219Z,63.91
2022-12-24T18:51:42.951Z,68.37
2022-12-24T18:53:04.426Z,63.22
2022-12-24T18:54:28.673Z,69.24
2022-12-24T18:55:50.005Z,60.99
2022-12-24T18:57:11.162Z,65.77
2022-12-24T18:58:34.451Z,60.41
2022-12-24T19:01:27.920Z,60.36
2022-12-24T19:02:50.864Z,58.84
2022-12-24T19:04:12.520Z,64.06
2022-12-24T19:05:35.425Z,59.84
2022-12-24T19:08:56.008Z,64.63
2022-12-24T19:09:45.052Z,62.17
2022-12-24T19:11:07.589Z,69.91
2022-12-24T19:12:28.993Z,67.14
2022-12-24T19:13:50.537Z,69.30
2022-12-24T19:15:14.211Z,65.15
2022-12-24T19:16:36.177Z,66.62
2022-12-24T19:17:57.738Z,70.65
2022-12-24T19:19:20.034Z,52.31
2022-12-24T19:20:42.002Z,69.56
2022-12-24T19:22:04.408Z,69.11
2022-12-24T19:34:48.591Z,76.87
2022-12-24T19:37:26.174Z,52.60
2022-12-24T19:40:10.083Z,58.77
2022-12-24T19:41:31.424Z,60.12
2022-12-24T19:42:53.981Z,63.81
2022-12-24T19:44:16.081Z,60.76
2022-12-24T19:45:37.429Z,64.22
2022-12-24T19:46:58.985Z,65.53
2022-12-24T19:52:41.620Z,62.71
2022-12-24T19:56:03.695Z,64.88